Time;durP1;ratioP1;P1;durP2;ratioP2;P2;SDS_P1;SDS_P2;PMS_P1;PMS_P2;Temp;Humidity;BMP_temperature;BMP_pressure;BME280_temperature;BME280_humidity;BME280_pressure;Samples;Min_cycle;Max_cycle;Signal;HPM_P1;HPM_P2
2023/10/27 00:01:50;;;;;;;5.97;5.37;;;;;;;;;;5012929;28;20205;-49
2023/10/27 00:04:16;;;;;;;5.40;5.00;;;;;;;;;;5013016;28;20221;-49
2023/10/27 00:06:42;;;;;;;5.97;5.47;;;;;;;;;;5012741;28;20209;-49
2023/10/27 00:09:08;;;;;;;5.10;4.60;;;;;;;;;;5012789;28;20202;-49
2023/10/27 00:11:38;;;;;;;6.67;5.97;;;;;;;;;;5012779;28;20197;-49
2023/10/27 00:14:04;;;;;;;5.70;5.20;;;;;;;;;;5012724;28;20641;-49
2023/10/27 00:16:30;;;;;;;6.23;5.73;;;;;;;;;;5012674;28;20206;-49
2023/10/27 00:18:57;;;;;;;5.77;5.27;;;;;;;;;;5012619;28;20288;-49
2023/10/27 00:21:23;;;;;;;6.47;5.80;;;;;;;;;;5012612;28;20198;-49
2023/10/27 00:23:49;;;;;;;6.07;5.57;;;;;;;;;;5012774;28;20285;-49
2023/10/27 00:26:15;;;;;;;6.90;6.30;;;;;;;;;;5012715;28;20237;-49
2023/10/27 00:28:41;;;;;;;6.67;6.00;;;;;;;;;;5012577;28;20676;-49
2023/10/27 00:31:07;;;;;;;6.63;5.93;;;;;;;;;;5012377;28;20593;-49
2023/10/27 00:33:34;;;;;;;6.57;5.77;;;;;;;;;;5012532;28;20197;-48
2023/10/27 00:36:01;;;;;;;6.23;5.73;;;;;;;;;;5012407;28;20201;-49
2023/10/27 00:38:28;;;;;;;6.37;5.87;;;;;;;;;;5012303;28;20203;-49
2023/10/27 00:40:54;;;;;;;6.77;6.17;;;;;;;;;;5012395;28;20476;-48
2023/10/27 00:43:20;;;;;;;6.43;5.83;;;;;;;;;;5012139;28;20320;-49
2023/10/27 00:45:50;;;;;;;6.17;5.67;;;;;;;;;;5012361;28;20259;-49
2023/10/27 00:48:16;;;;;;;6.03;5.53;;;;;;;;;;5012447;28;20201;-49
2023/10/27 00:50:42;;;;;;;6.83;6.10;;;;;;;;;;5012064;28;20284;-48
2023/10/27 00:53:10;;;;;;;6.17;5.57;;;;;;;;;;5012129;28;20528;-48
2023/10/27 00:55:37;;;;;;;6.60;6.00;;;;;;;;;;5012019;28;20582;-48
2023/10/27 00:58:03;;;;;;;6.27;5.67;;;;;;;;;;5012181;28;20197;-49
2023/10/27 01:00:30;;;;;;;6.80;6.20;;;;;;;;;;5012104;28;20616;-50
2023/10/27 01:02:56;;;;;;;6.77;6.17;;;;;;;;;;5011836;28;20735;-48
2023/10/27 01:05:22;;;;;;;6.53;6.00;;;;;;;;;;5012217;28;20243;-48
2023/10/27 01:07:48;;;;;;;7.03;6.43;;;;;;;;;;5011951;28;20201;-48
2023/10/27 01:10:15;;;;;;;7.07;6.47;;;;;;;;;;5012144;28;20248;-48
2023/10/27 01:12:46;;;;;;;6.83;6.20;;;;;;;;;;5011739;28;20205;-48
2023/10/27 01:15:12;;;;;;;6.63;6.03;;;;;;;;;;5011915;28;20247;-48
2023/10/27 01:17:38;;;;;;;6.87;6.27;;;;;;;;;;5011742;28;20229;-48
2023/10/27 01:20:05;;;;;;;7.97;7.17;;;;;;;;;;5011755;28;20229;-48
2023/10/27 01:22:33;;;;;;;6.73;6.13;;;;;;;;;;5011880;28;20193;-51
2023/10/27 01:25:00;;;;;;;7.47;6.87;;;;;;;;;;5011863;28;20625;-50
2023/10/27 01:27:26;;;;;;;6.53;6.00;;;;;;;;;;5011732;28;20672;-50
2023/10/27 01:29:52;;;;;;;6.73;6.13;;;;;;;;;;5011754;28;20229;-50
2023/10/27 01:32:18;;;;;;;8.67;6.20;;;;;;;;;;5011845;28;20219;-50
2023/10/27 01:34:44;;;;;;;6.93;6.33;;;;;;;;;;5011588;28;20225;-50
2023/10/27 01:37:11;;;;;;;6.53;5.90;;;;;;;;;;5011757;28;20193;-50
2023/10/27 01:42:42;;;;;;;6.27;5.77;;;;;;;;;;5011324;28;20310;-50
2023/10/27 01:45:08;;;;;;;7.80;6.70;;;;;;;;;;5011458;28;20197;-50
2023/10/27 01:47:34;;;;;;;7.13;6.30;;;;;;;;;;5011514;28;20672;-50
2023/10/27 01:50:00;;;;;;;6.73;5.73;;;;;;;;;;5011586;28;20200;-48
2023/10/27 01:52:26;;;;;;;7.63;6.93;;;;;;;;;;5011577;28;20202;-48
2023/10/27 01:54:53;;;;;;;7.17;6.47;;;;;;;;;;5014689;28;20252;-48
2023/10/27 01:57:20;;;;;;;7.40;6.70;;;;;;;;;;5015303;28;20237;-49
2023/10/27 01:59:47;;;;;;;8.20;7.37;;;;;;;;;;5015283;28;20208;-49
2023/10/27 02:02:15;;;;;;;7.00;6.30;;;;;;;;;;5015302;28;20239;-49
2023/10/27 02:04:41;;;;;;;7.10;6.50;;;;;;;;;;5015050;28;20312;-49
2023/10/27 02:07:07;;;;;;;7.23;6.63;;;;;;;;;;5015196;28;20209;-49
2023/10/27 02:09:33;;;;;;;7.33;6.73;;;;;;;;;;5015243;28;20443;-49
2023/10/27 02:11:59;;;;;;;7.00;6.40;;;;;;;;;;5015086;28;20574;-49
2023/10/27 02:14:25;;;;;;;6.50;5.80;;;;;;;;;;5014971;28;20249;-49
2023/10/27 02:16:53;;;;;;;6.57;5.97;;;;;;;;;;5014775;28;20571;-49
2023/10/27 02:19:19;;;;;;;7.37;6.53;;;;;;;;;;5014848;28;20206;-49
2023/10/27 02:21:48;;;;;;;7.73;6.93;;;;;;;;;;5014845;28;20235;-49
2023/10/27 02:24:14;;;;;;;7.50;6.80;;;;;;;;;;5015021;28;20217;-49
2023/10/27 02:26:40;;;;;;;6.67;6.07;;;;;;;;;;5014600;28;20679;-49
2023/10/27 02:29:06;;;;;;;6.97;6.37;;;;;;;;;;5014673;28;20201;-49
2023/10/27 02:31:32;;;;;;;6.70;6.10;;;;;;;;;;5014735;28;20228;-49
2023/10/27 02:33:59;;;;;;;7.30;6.70;;;;;;;;;;5014462;28;20225;-49
2023/10/27 02:36:26;;;;;;;6.73;6.13;;;;;;;;;;5014508;28;20288;-49
2023/10/27 02:38:52;;;;;;;6.53;5.93;;;;;;;;;;5014505;28;20206;-49
2023/10/27 02:41:18;;;;;;;6.73;6.10;;;;;;;;;;5014670;28;20738;-49
2023/10/27 02:43:44;;;;;;;8.27;7.47;;;;;;;;;;5014297;28;20610;-49
2023/10/27 02:46:13;;;;;;;9.43;6.00;;;;;;;;;;5014676;28;20202;-49
2023/10/27 02:48:41;;;;;;;6.90;6.30;;;;;;;;;;5014510;28;20198;-48
2023/10/27 02:51:08;;;;;;;6.77;6.17;;;;;;;;;;5014320;28;20276;-48
2023/10/27 02:53:35;;;;;;;8.33;6.40;;;;;;;;;;5014425;28;20204;-48
2023/10/27 02:56:05;;;;;;;6.77;6.17;;;;;;;;;;5014409;28;20193;-50
2023/10/27 02:58:30;;;;;;;6.10;5.60;;;;;;;;;;5014288;28;20197;-47
2023/10/27 03:00:57;;;;;;;6.57;6.07;;;;;;;;;;5009015;28;20264;-48
2023/10/27 03:03:24;;;;;;;7.20;6.50;;;;;;;;;;5002051;28;20541;-50
2023/10/27 03:05:50;;;;;;;6.43;5.77;;;;;;;;;;5002638;28;20241;-49
2023/10/27 03:08:18;;;;;;;6.50;5.90;;;;;;;;;;5009170;28;20201;-49
2023/10/27 03:10:44;;;;;;;6.57;5.60;;;;;;;;;;5003919;28;20190;-49
2023/10/27 03:13:10;;;;;;;6.37;5.80;;;;;;;;;;5003684;28;20252;-49
2023/10/27 03:15:36;;;;;;;6.17;5.67;;;;;;;;;;5005237;28;20225;-49
2023/10/27 03:18:02;;;;;;;6.17;5.67;;;;;;;;;;5006944;28;20668;-49
2023/10/27 03:20:28;;;;;;;7.97;6.33;;;;;;;;;;5003629;28;20316;-49
2023/10/27 03:22:54;;;;;;;6.83;6.23;;;;;;;;;;5001868;28;20655;-49
2023/10/27 03:25:22;;;;;;;7.17;6.47;;;;;;;;;;5001918;28;20234;-49
2023/10/27 03:27:49;;;;;;;8.30;7.27;;;;;;;;;;5003625;28;20300;-49
2023/10/27 03:30:16;;;;;;;8.07;7.27;;;;;;;;;;5003466;28;20627;-49
2023/10/27 03:32:41;;;;;;;7.80;7.00;;;;;;;;;;5004909;28;20214;-49
2023/10/27 03:35:08;;;;;;;7.50;6.67;;;;;;;;;;5003104;28;20237;-50
2023/10/27 03:37:34;;;;;;;8.83;7.93;;;;;;;;;;5004946;28;20201;-47
2023/10/27 03:40:01;;;;;;;9.27;8.40;;;;;;;;;;5003138;28;20194;-47
2023/10/27 03:42:29;;;;;;;8.90;8.00;;;;;;;;;;5001529;28;20238;-47
2023/10/27 03:44:55;;;;;;;9.17;7.53;;;;;;;;;;5006409;28;20908;-47
2023/10/27 03:47:21;;;;;;;9.43;7.77;;;;;;;;;;5004764;28;20293;-47
2023/10/27 03:49:47;;;;;;;9.00;8.10;;;;;;;;;;5003049;28;20201;-47
2023/10/27 03:52:13;;;;;;;11.37;9.10;;;;;;;;;;5002861;28;20228;-49
2023/10/27 03:54:39;;;;;;;11.53;9.30;;;;;;;;;;5001560;28;20645;-49
2023/10/27 03:57:06;;;;;;;21.60;10.53;;;;;;;;;;5001153;28;20265;-48
2023/10/27 03:59:33;;;;;;;14.60;10.20;;;;;;;;;;4998011;28;20214;-47
2023/10/27 04:01:59;;;;;;;12.70;10.50;;;;;;;;;;5001195;28;20300;-48
2023/10/27 04:04:25;;;;;;;18.50;11.30;;;;;;;;;;5003064;28;20272;-48
2023/10/27 04:06:51;;;;;;;15.57;11.07;;;;;;;;;;5000824;28;20228;-48
2023/10/27 04:09:17;;;;;;;25.13;11.53;;;;;;;;;;5001318;28;20614;-47
2023/10/27 04:11:43;;;;;;;18.10;12.67;;;;;;;;;;4999167;28;20711;-48
2023/10/27 04:14:09;;;;;;;15.67;11.83;;;;;;;;;;5003994;28;20264;-48
2023/10/27 04:16:37;;;;;;;17.30;12.27;;;;;;;;;;5002305;28;20214;-48
2023/10/27 04:19:03;;;;;;;17.03;11.73;;;;;;;;;;5002463;28;20672;-48
2023/10/27 04:21:29;;;;;;;16.23;12.60;;;;;;;;;;5002441;28;20228;-48
2023/10/27 04:23:56;;;;;;;31.20;13.43;;;;;;;;;;5002346;28;20221;-48
2023/10/27 04:26:22;;;;;;;18.67;12.57;;;;;;;;;;5000625;28;20190;-48
2023/10/27 04:28:48;;;;;;;19.40;12.60;;;;;;;;;;5002637;28;20201;-48
2023/10/27 04:31:14;;;;;;;16.60;12.77;;;;;;;;;;4998907;28;20221;-48
2023/10/27 04:33:43;;;;;;;17.73;13.47;;;;;;;;;;5000456;28;20198;-48
2023/10/27 04:36:09;;;;;;;15.63;11.83;;;;;;;;;;5002131;28;20238;-48
2023/10/27 04:38:35;;;;;;;15.27;12.67;;;;;;;;;;5000476;28;20198;-50
2023/10/27 04:41:01;;;;;;;15.57;12.33;;;;;;;;;;5000486;28;20668;-47
2023/10/27 04:43:29;;;;;;;14.13;12.40;;;;;;;;;;5002128;28;20287;-50
2023/10/27 04:45:55;;;;;;;14.83;11.57;;;;;;;;;;5000267;28;20201;-47
2023/10/27 04:48:21;;;;;;;14.47;11.90;;;;;;;;;;4999816;28;20602;-50
2023/10/27 04:50:53;;;;;;;14.77;11.70;;;;;;;;;;5003844;28;20300;-50
2023/10/27 04:53:19;;;;;;;12.43;10.33;;;;;;;;;;5002400;28;20655;-49
2023/10/27 04:55:45;;;;;;;13.30;10.53;;;;;;;;;;5002091;28;20356;-49
2023/10/27 04:58:12;;;;;;;13.03;11.40;;;;;;;;;;5003799;28;20342;-49
2023/10/27 05:00:38;;;;;;;15.07;11.63;;;;;;;;;;5001985;28;20301;-49
2023/10/27 05:03:04;;;;;;;14.73;12.57;;;;;;;;;;5001857;28;20276;-49
2023/10/27 05:05:30;;;;;;;12.90;10.60;;;;;;;;;;5000312;28;20219;-49
2023/10/27 05:07:57;;;;;;;13.77;10.97;;;;;;;;;;5000161;28;20212;-49
2023/10/27 05:10:23;;;;;;;16.93;11.53;;;;;;;;;;5000212;28;20206;-49
2023/10/27 05:12:49;;;;;;;15.57;11.73;;;;;;;;;;5001843;28;20281;-48
2023/10/27 05:15:15;;;;;;;16.53;12.00;;;;;;;;;;5000117;28;20333;-49
2023/10/27 05:17:42;;;;;;;14.20;11.53;;;;;;;;;;4999987;28;20205;-49
2023/10/27 05:20:08;;;;;;;16.93;11.87;;;;;;;;;;4998408;28;20807;-48
2023/10/27 05:22:34;;;;;;;14.40;11.10;;;;;;;;;;5000065;28;20226;-49
2023/10/27 05:25:04;;;;;;;13.10;10.97;;;;;;;;;;4998284;28;20693;-49
2023/10/27 05:27:30;;;;;;;13.70;11.43;;;;;;;;;;5000109;28;20201;-49
2023/10/27 05:29:56;;;;;;;12.53;11.07;;;;;;;;;;5003568;28;20197;-49
2023/10/27 05:32:22;;;;;;;12.77;10.23;;;;;;;;;;5002226;28;20658;-49
2023/10/27 05:34:48;;;;;;;11.40;10.17;;;;;;;;;;5003867;28;20596;-49
2023/10/27 05:37:14;;;;;;;11.80;10.50;;;;;;;;;;5002267;28;20228;-49
2023/10/27 05:39:40;;;;;;;14.93;11.50;;;;;;;;;;5003881;28;20224;-49
2023/10/27 05:42:08;;;;;;;16.47;11.63;;;;;;;;;;5002058;28;20683;-49
2023/10/27 05:44:34;;;;;;;15.17;11.77;;;;;;;;;;5003793;28;20284;-49
2023/10/27 05:47:01;;;;;;;12.97;11.07;;;;;;;;;;5005324;28;20316;-49
2023/10/27 05:49:27;;;;;;;15.83;11.93;;;;;;;;;;5002047;28;20722;-49
2023/10/27 05:51:53;;;;;;;15.47;12.33;;;;;;;;;;5003406;28;20255;-49
2023/10/27 05:54:19;;;;;;;14.37;12.73;;;;;;;;;;5004035;28;20228;-49
2023/10/27 05:56:45;;;;;;;16.20;13.53;;;;;;;;;;5005178;28;20565;-49
2023/10/27 05:59:13;;;;;;;17.43;13.33;;;;;;;;;;5001652;28;20284;-49
2023/10/27 06:01:39;;;;;;;15.33;12.97;;;;;;;;;;5003420;28;20198;-48
2023/10/27 06:04:05;;;;;;;15.33;12.93;;;;;;;;;;5001569;28;20728;-47
2023/10/27 06:06:31;;;;;;;16.23;13.43;;;;;;;;;;5005273;28;20198;-48
2023/10/27 06:08:57;;;;;;;14.57;12.17;;;;;;;;;;5001633;28;20284;-47
2023/10/27 06:11:24;;;;;;;16.87;12.50;;;;;;;;;;5005026;28;20201;-47
2023/10/27 06:13:50;;;;;;;15.03;11.87;;;;;;;;;;5001379;28;20201;-47
2023/10/27 06:16:17;;;;;;;14.93;12.30;;;;;;;;;;5003310;28;20319;-48
2023/10/27 06:18:43;;;;;;;14.50;11.80;;;;;;;;;;5004597;28;20288;-47
2023/10/27 06:21:09;;;;;;;14.23;11.90;;;;;;;;;;5003346;28;20763;-47
2023/10/27 06:23:35;;;;;;;16.63;11.77;;;;;;;;;;5002799;28;20723;-48
2023/10/27 06:26:02;;;;;;;15.13;11.70;;;;;;;;;;5002601;28;20182;-47
2023/10/27 06:28:28;;;;;;;13.77;11.37;;;;;;;;;;5002416;28;20573;-48
2023/10/27 06:30:54;;;;;;;15.83;12.50;;;;;;;;;;5000909;28;20672;-48
2023/10/27 06:33:22;;;;;;;15.50;11.20;;;;;;;;;;5002780;28;20240;-47
2023/10/27 06:35:49;;;;;;;14.57;11.17;;;;;;;;;;5002977;28;20233;-47
2023/10/27 06:38:15;;;;;;;14.60;11.90;;;;;;;;;;5003058;28;20197;-47
2023/10/27 06:40:41;;;;;;;14.67;11.93;;;;;;;;;;5004344;28;20212;-48
2023/10/27 06:43:07;;;;;;;16.33;12.30;;;;;;;;;;5002366;28;20249;-48
2023/10/27 06:45:33;;;;;;;16.03;11.63;;;;;;;;;;5001104;28;20192;-48
2023/10/27 06:47:59;;;;;;;14.73;11.50;;;;;;;;;;5002715;28;20202;-48
2023/10/27 06:50:26;;;;;;;14.53;11.73;;;;;;;;;;5002596;28;20544;-48
2023/10/27 06:52:52;;;;;;;17.47;12.90;;;;;;;;;;5003601;28;20248;-48
2023/10/27 06:55:18;;;;;;;16.70;13.03;;;;;;;;;;5002539;28;20237;-50
2023/10/27 06:57:44;;;;;;;15.93;12.73;;;;;;;;;;5000782;28;20209;-49
2023/10/27 07:00:11;;;;;;;14.53;11.70;;;;;;;;;;5002376;28;20225;-49
2023/10/27 07:02:37;;;;;;;16.90;12.30;;;;;;;;;;5005887;28;20209;-50
2023/10/27 07:05:05;;;;;;;14.80;11.53;;;;;;;;;;5003074;28;20233;-49
2023/10/27 07:07:32;;;;;;;14.20;12.17;;;;;;;;;;5005981;28;20746;-49
2023/10/27 07:09:59;;;;;;;14.60;11.10;;;;;;;;;;5005443;28;20676;-49
2023/10/27 07:12:25;;;;;;;16.37;12.67;;;;;;;;;;5003874;28;20425;-49
2023/10/27 07:14:51;;;;;;;16.83;12.97;;;;;;;;;;5003527;28;20572;-49
2023/10/27 07:17:17;;;;;;;17.17;12.43;;;;;;;;;;5002209;28;20197;-49
2023/10/27 07:19:43;;;;;;;14.80;12.23;;;;;;;;;;5005414;28;20198;-49
2023/10/27 07:22:09;;;;;;;15.90;11.60;;;;;;;;;;5003732;28;20204;-49
2023/10/27 07:24:36;;;;;;;17.17;12.83;;;;;;;;;;5005377;28;20540;-49
2023/10/27 07:27:02;;;;;;;15.80;12.23;;;;;;;;;;5007147;28;20617;-49
2023/10/27 07:29:28;;;;;;;17.13;12.67;;;;;;;;;;5007034;28;20608;-49
2023/10/27 07:31:54;;;;;;;17.83;13.37;;;;;;;;;;5006823;28;20240;-49
2023/10/27 07:34:20;;;;;;;18.30;13.70;;;;;;;;;;5008560;28;20253;-49
2023/10/27 07:36:46;;;;;;;16.07;12.13;;;;;;;;;;5000182;28;20562;-49
2023/10/27 07:39:14;;;;;;;16.97;12.57;;;;;;;;;;5008318;28;20660;-49
2023/10/27 07:41:41;;;;;;;20.70;13.70;;;;;;;;;;5006562;28;20950;-50
2023/10/27 07:44:07;;;;;;;20.27;14.87;;;;;;;;;;5001281;28;20273;-49
2023/10/27 07:46:33;;;;;;;17.20;13.47;;;;;;;;;;5006764;28;20248;-49
2023/10/27 07:48:59;;;;;;;16.13;12.93;;;;;;;;;;5008030;28;20224;-50
2023/10/27 07:51:25;;;;;;;22.87;15.17;;;;;;;;;;5004487;28;20628;-51
2023/10/27 07:53:51;;;;;;;18.43;13.90;;;;;;;;;;5004655;28;20301;-50
2023/10/27 07:56:18;;;;;;;21.00;15.50;;;;;;;;;;5004981;28;20221;-50
2023/10/27 07:58:45;;;;;;;19.60;14.10;;;;;;;;;;5006535;28;20321;-50
2023/10/27 08:01:11;;;;;;;23.80;14.70;;;;;;;;;;5004476;28;20201;-50
2023/10/27 08:03:38;;;;;;;21.00;14.90;;;;;;;;;;5002629;28;20316;-50
2023/10/27 08:06:07;;;;;;;21.13;14.77;;;;;;;;;;5004405;28;20209;-49
2023/10/27 08:08:33;;;;;;;21.23;15.00;;;;;;;;;;5002602;28;20209;-49
2023/10/27 08:10:59;;;;;;;21.30;14.90;;;;;;;;;;5000918;28;20221;-49
2023/10/27 08:13:26;;;;;;;22.73;15.87;;;;;;;;;;4999263;28;20193;-51
2023/10/27 08:15:53;;;;;;;23.80;16.10;;;;;;;;;;5000776;28;20229;-51
2023/10/27 08:18:19;;;;;;;22.70;16.70;;;;;;;;;;5000978;28;20304;-52
2023/10/27 08:20:46;;;;;;;21.80;15.50;;;;;;;;;;5001045;28;20207;-51
2023/10/27 08:23:12;;;;;;;24.60;16.97;;;;;;;;;;5000829;28;20205;-49
2023/10/27 08:25:38;;;;;;;20.67;15.90;;;;;;;;;;4999081;28;20209;-51
2023/10/27 08:28:04;;;;;;;23.87;16.80;;;;;;;;;;5000641;28;20202;-49
2023/10/27 08:30:30;;;;;;;23.03;17.20;;;;;;;;;;5002197;28;20198;-49
2023/10/27 08:32:58;;;;;;;22.53;15.90;;;;;;;;;;5000473;28;20209;-49
2023/10/27 08:35:24;;;;;;;23.30;16.10;;;;;;;;;;5002301;28;20221;-47
2023/10/27 08:37:50;;;;;;;24.30;16.23;;;;;;;;;;5002217;28;20202;-51
2023/10/27 08:40:17;;;;;;;28.57;17.43;;;;;;;;;;4998906;28;21241;-53
2023/10/27 08:42:44;;;;;;;26.53;16.03;;;;;;;;;;5000405;28;20237;-52
2023/10/27 08:45:11;;;;;;;23.27;16.43;;;;;;;;;;5003632;28;20281;-53
2023/10/27 08:47:37;;;;;;;20.93;16.03;;;;;;;;;;5000046;28;20543;-52
2023/10/27 08:50:05;;;;;;;20.37;15.63;;;;;;;;;;5003780;28;20652;-52
2023/10/27 08:52:32;;;;;;;21.00;15.93;;;;;;;;;;5000484;28;20702;-51
2023/10/27 08:55:00;;;;;;;21.40;15.67;;;;;;;;;;5000264;28;20233;-51
2023/10/27 08:57:26;;;;;;;21.27;15.17;;;;;;;;;;5002213;28;20202;-51
2023/10/27 08:59:52;;;;;;;22.10;15.03;;;;;;;;;;5005360;28;20630;-51
2023/10/27 09:02:28;;;;;;;19.00;14.60;;;;;;;;;;5001752;28;20204;-51
2023/10/27 09:04:59;;;;;;;19.60;14.53;;;;;;;;;;5003387;28;20197;-51
2023/10/27 09:07:27;;;;;;;21.07;13.67;;;;;;;;;;5001898;28;20215;-51
2023/10/27 09:09:53;;;;;;;16.97;13.07;;;;;;;;;;5005091;28;20208;-51
2023/10/27 09:12:23;;;;;;;14.77;12.37;;;;;;;;;;5003332;28;20241;-51
2023/10/27 09:14:58;;;;;;;16.30;13.23;;;;;;;;;;5003224;28;20229;-51
2023/10/27 09:17:24;;;;;;;18.00;14.50;;;;;;;;;;4999714;28;20201;-51
2023/10/27 09:20:01;;;;;;;18.90;13.77;;;;;;;;;;4999821;28;20228;-51
2023/10/27 09:22:29;;;;;;;15.20;12.40;;;;;;;;;;4999979;28;20208;-51
2023/10/27 09:25:12;;;;;;;16.03;12.83;;;;;;;;;;5003074;28;20232;-50
2023/10/27 09:27:43;;;;;;;17.37;13.33;;;;;;;;;;5001207;28;20664;-51
2023/10/27 09:30:11;;;;;;;15.03;12.27;;;;;;;;;;5001346;28;20248;-52
2023/10/27 09:32:37;;;;;;;16.43;13.00;;;;;;;;;;5001287;28;20260;-51
2023/10/27 09:35:10;;;;;;;17.40;13.27;;;;;;;;;;5004890;28;20229;-51
2023/10/27 09:37:37;;;;;;;17.50;12.30;;;;;;;;;;5003099;28;20198;-52
2023/10/27 09:40:04;;;;;;;15.80;12.47;;;;;;;;;;5004751;28;20232;-51
2023/10/27 09:42:32;;;;;;;16.90;13.70;;;;;;;;;;5001162;28;20712;-51
2023/10/27 09:45:03;;;;;;;15.47;12.10;;;;;;;;;;5001557;28;20260;-51
2023/10/27 09:47:34;;;;;;;16.53;12.80;;;;;;;;;;5003282;28;20708;-51
2023/10/27 09:50:06;;;;;;;13.43;11.33;;;;;;;;;;5001514;28;20664;-52
2023/10/27 09:52:32;;;;;;;14.63;11.70;;;;;;;;;;5006818;28;20205;-50
2023/10/27 09:55:01;;;;;;;18.10;12.67;;;;;;;;;;5001416;28;20275;-52
2023/10/27 09:57:28;;;;;;;16.03;12.60;;;;;;;;;;5001542;28;20284;-52
2023/10/27 09:59:55;;;;;;;14.60;12.63;;;;;;;;;;4999761;28;20229;-51
2023/10/27 10:02:23;;;;;;;14.33;11.83;;;;;;;;;;5001275;28;20193;-51
2023/10/27 10:05:02;;;;;;;13.93;11.40;;;;;;;;;;5001346;28;20202;-51
2023/10/27 10:07:32;;;;;;;13.30;11.47;;;;;;;;;;4998024;28;20201;-51
2023/10/27 10:10:16;;;;;;;14.27;11.90;;;;;;;;;;5003187;28;20240;-51
2023/10/27 10:12:57;;;;;;;13.77;11.57;;;;;;;;;;5001203;28;20619;-51
2023/10/27 10:15:23;;;;;;;16.07;13.63;;;;;;;;;;5002163;28;20287;-51
2023/10/27 10:17:49;;;;;;;16.23;12.30;;;;;;;;;;5006301;28;20198;-51
2023/10/27 10:20:15;;;;;;;13.60;11.73;;;;;;;;;;5006765;28;20255;-51
2023/10/27 10:22:51;;;;;;;14.27;11.80;;;;;;;;;;5010059;28;20202;-52
2023/10/27 10:25:31;;;;;;;14.17;11.03;;;;;;;;;;5006868;28;20193;-52
2023/10/27 10:28:16;;;;;;;13.80;11.93;;;;;;;;;;5004859;28;20258;-52
2023/10/27 10:30:42;;;;;;;15.10;11.27;;;;;;;;;;5004725;28;20201;-51
2023/10/27 10:33:15;;;;;;;14.83;11.87;;;;;;;;;;5006455;28;20228;-51
2023/10/27 10:35:42;;;;;;;14.90;12.23;;;;;;;;;;5006275;28;20226;-51
2023/10/27 10:38:23;;;;;;;15.67;12.57;;;;;;;;;;5008097;28;20292;-51
2023/10/27 10:40:51;;;;;;;15.63;12.27;;;;;;;;;;5007911;28;20201;-51
2023/10/27 10:43:23;;;;;;;17.40;12.33;;;;;;;;;;5007990;28;20325;-51
2023/10/27 10:45:50;;;;;;;15.23;12.57;;;;;;;;;;5009523;28;20205;-51
2023/10/27 10:48:16;;;;;;;17.23;11.73;;;;;;;;;;5007933;28;20575;-51
2023/10/27 10:50:43;;;;;;;17.23;13.40;;;;;;;;;;5002773;28;21171;-51
2023/10/27 10:53:10;;;;;;;18.57;14.60;;;;;;;;;;5007376;28;20206;-53
2023/10/27 10:55:36;;;;;;;15.50;12.53;;;;;;;;;;5004227;28;20235;-51
2023/10/27 10:58:04;;;;;;;18.10;13.87;;;;;;;;;;5005965;28;20297;-51
2023/10/27 11:00:33;;;;;;;18.80;14.80;;;;;;;;;;5007799;28;20209;-51
2023/10/27 11:03:05;;;;;;;17.27;14.07;;;;;;;;;;5012612;28;20200;-51
2023/10/27 11:05:32;;;;;;;18.30;14.23;;;;;;;;;;5006043;28;20197;-51
2023/10/27 11:07:58;;;;;;;18.13;14.60;;;;;;;;;;5003912;28;20202;-51
2023/10/27 11:10:24;;;;;;;18.03;13.33;;;;;;;;;;5003996;28;20656;-52
2023/10/27 11:12:51;;;;;;;21.03;13.83;;;;;;;;;;5007302;28;20248;-53
2023/10/27 11:15:31;;;;;;;18.70;14.13;;;;;;;;;;5004873;28;20225;-51
2023/10/27 11:18:05;;;;;;;18.07;13.27;;;;;;;;;;5001687;28;20256;-51
2023/10/27 11:20:34;;;;;;;18.67;14.43;;;;;;;;;;5005757;28;20227;-51
2023/10/27 11:23:07;;;;;;;20.60;14.13;;;;;;;;;;5005554;28;20279;-51
2023/10/27 11:25:33;;;;;;;20.53;14.63;;;;;;;;;;5006660;28;20221;-51
2023/10/27 11:28:14;;;;;;;18.60;14.10;;;;;;;;;;5005024;28;20201;-51
2023/10/27 11:30:40;;;;;;;16.90;13.97;;;;;;;;;;5003371;28;20296;-50
2023/10/27 11:33:08;;;;;;;19.67;14.60;;;;;;;;;;5006776;28;20304;-51
2023/10/27 11:35:34;;;;;;;18.73;14.47;;;;;;;;;;4999931;28;20725;-51
2023/10/27 11:38:02;;;;;;;16.90;13.73;;;;;;;;;;5003325;28;20260;-51
2023/10/27 11:40:28;;;;;;;18.10;13.83;;;;;;;;;;5005339;28;20570;-50
2023/10/27 11:42:54;;;;;;;18.50;14.37;;;;;;;;;;5001544;28;20241;-51
2023/10/27 11:45:20;;;;;;;18.23;13.30;;;;;;;;;;5003592;28;20284;-50
2023/10/27 11:47:46;;;;;;;19.97;14.70;;;;;;;;;;5001646;28;20276;-50
2023/10/27 11:50:13;;;;;;;16.87;13.37;;;;;;;;;;5004632;28;20575;-51
2023/10/27 11:52:39;;;;;;;17.60;13.83;;;;;;;;;;5004891;28;20202;-51
2023/10/27 11:55:06;;;;;;;16.63;12.97;;;;;;;;;;5004072;28;20225;-51
2023/10/27 11:57:32;;;;;;;16.43;13.60;;;;;;;;;;5003362;28;20284;-51
2023/10/27 11:59:58;;;;;;;18.63;14.27;;;;;;;;;;5003254;28;20654;-51
2023/10/27 12:02:24;;;;;;;21.27;14.70;;;;;;;;;;5001365;28;20229;-51
2023/10/27 12:04:50;;;;;;;18.97;13.90;;;;;;;;;;5003013;28;20205;-50
2023/10/27 12:07:17;;;;;;;18.40;14.23;;;;;;;;;;5004649;28;20225;-51
2023/10/27 12:09:43;;;;;;;17.00;13.90;;;;;;;;;;5003005;28;20221;-51
2023/10/27 12:12:10;;;;;;;17.57;14.43;;;;;;;;;;5004235;28;20691;-51
2023/10/27 12:14:36;;;;;;;17.87;13.83;;;;;;;;;;5002772;28;20288;-51
2023/10/27 12:17:02;;;;;;;16.67;13.83;;;;;;;;;;5002787;28;20229;-51
2023/10/27 12:19:28;;;;;;;17.30;13.37;;;;;;;;;;5004525;28;20210;-50
2023/10/27 12:21:54;;;;;;;14.47;12.97;;;;;;;;;;5002622;28;20193;-50
2023/10/27 12:24:23;;;;;;;15.97;13.27;;;;;;;;;;5004397;28;20240;-51
2023/10/27 12:26:49;;;;;;;14.07;12.57;;;;;;;;;;5000955;28;20285;-51
2023/10/27 12:29:15;;;;;;;13.47;11.30;;;;;;;;;;5000693;28;20220;-50
2023/10/27 12:31:41;;;;;;;15.80;13.40;;;;;;;;;;5002400;28;20279;-50
2023/10/27 12:34:08;;;;;;;17.30;12.13;;;;;;;;;;5002372;28;20194;-50
2023/10/27 12:36:34;;;;;;;16.37;12.93;;;;;;;;;;5000747;28;20694;-50
2023/10/27 12:39:02;;;;;;;14.63;12.53;;;;;;;;;;4998713;28;20197;-50
2023/10/27 12:41:29;;;;;;;13.97;12.37;;;;;;;;;;5002203;28;20212;-50
2023/10/27 12:43:55;;;;;;;15.97;13.07;;;;;;;;;;5004019;28;20245;-50
2023/10/27 12:46:22;;;;;;;14.87;12.80;;;;;;;;;;5002216;28;20648;-50
2023/10/27 12:48:48;;;;;;;15.67;13.10;;;;;;;;;;5005873;28;20201;-50
2023/10/27 12:51:15;;;;;;;15.20;12.90;;;;;;;;;;5003826;28;20259;-50
2023/10/27 12:53:43;;;;;;;14.90;12.80;;;;;;;;;;5004001;28;20200;-51
2023/10/27 12:56:09;;;;;;;15.77;13.67;;;;;;;;;;5005553;28;20229;-51
2023/10/27 12:58:41;;;;;;;14.33;12.30;;;;;;;;;;5000507;28;20205;-50
2023/10/27 13:01:07;;;;;;;15.63;13.80;;;;;;;;;;5005517;28;20224;-52
2023/10/27 13:03:33;;;;;;;14.47;12.47;;;;;;;;;;5002431;28;20545;-52
2023/10/27 13:05:59;;;;;;;16.23;12.83;;;;;;;;;;5003714;28;20197;-52
2023/10/27 13:08:25;;;;;;;19.67;13.50;;;;;;;;;;5002200;28;20197;-51
2023/10/27 13:10:51;;;;;;;16.37;13.37;;;;;;;;;;5003873;28;20295;-52
2023/10/27 13:13:17;;;;;;;17.37;13.77;;;;;;;;;;5005395;28;20296;-52
2023/10/27 13:15:44;;;;;;;18.10;15.00;;;;;;;;;;5003297;28;20656;-52
2023/10/27 13:18:11;;;;;;;17.03;14.60;;;;;;;;;;5004667;28;20252;-51
2023/10/27 13:20:38;;;;;;;16.60;14.83;;;;;;;;;;5003462;28;20289;-52
2023/10/27 13:23:04;;;;;;;19.73;16.00;;;;;;;;;;5001954;28;20213;-51
2023/10/27 13:25:30;;;;;;;16.73;13.63;;;;;;;;;;5003639;28;20194;-52
2023/10/27 13:27:56;;;;;;;17.27;13.53;;;;;;;;;;5003520;28;20197;-53
2023/10/27 13:30:22;;;;;;;14.20;12.70;;;;;;;;;;5005104;28;20285;-52
2023/10/27 13:32:50;;;;;;;17.73;14.00;;;;;;;;;;5000062;28;20763;-52
2023/10/27 13:35:16;;;;;;;14.23;12.43;;;;;;;;;;5001240;28;20234;-52
2023/10/27 13:37:42;;;;;;;16.00;13.20;;;;;;;;;;5003274;28;20233;-52
2023/10/27 13:40:09;;;;;;;15.60;13.70;;;;;;;;;;5002977;28;20723;-52
2023/10/27 13:42:36;;;;;;;16.67;13.77;;;;;;;;;;5003052;28;20738;-52
2023/10/27 13:45:02;;;;;;;15.00;12.67;;;;;;;;;;5001479;28;20193;-52
2023/10/27 13:47:28;;;;;;;17.23;13.47;;;;;;;;;;5008268;28;20201;-52
2023/10/27 13:49:55;;;;;;;14.90;13.13;;;;;;;;;;5003227;28;20196;-51
2023/10/27 13:52:22;;;;;;;13.83;11.53;;;;;;;;;;5008819;28;20206;-52
2023/10/27 13:54:48;;;;;;;14.40;12.00;;;;;;;;;;5014039;28;20193;-52
2023/10/27 13:57:14;;;;;;;12.70;10.90;;;;;;;;;;5006999;28;20241;-52
2023/10/27 13:59:40;;;;;;;12.83;10.93;;;;;;;;;;5005407;28;20301;-52
2023/10/27 14:02:06;;;;;;;13.00;11.53;;;;;;;;;;5008614;28;20225;-52
2023/10/27 14:04:32;;;;;;;13.67;11.40;;;;;;;;;;5005564;28;20200;-52
2023/10/27 14:06:59;;;;;;;14.67;12.50;;;;;;;;;;5008623;28;20289;-52
2023/10/27 14:09:25;;;;;;;13.23;11.83;;;;;;;;;;5010612;28;20268;-52
2023/10/27 14:11:52;;;;;;;12.27;10.97;;;;;;;;;;5008623;28;20202;-52
2023/10/27 14:14:23;;;;;;;13.43;11.83;;;;;;;;;;5007011;28;20277;-52
2023/10/27 14:16:49;;;;;;;14.30;10.97;;;;;;;;;;5010119;28;20230;-52
2023/10/27 14:19:15;;;;;;;11.93;10.73;;;;;;;;;;5005012;28;20723;-52
2023/10/27 14:21:43;;;;;;;12.63;10.93;;;;;;;;;;5006646;28;20679;-50
2023/10/27 14:24:10;;;;;;;11.77;10.37;;;;;;;;;;5004777;28;20213;-47
2023/10/27 14:26:37;;;;;;;11.10;10.00;;;;;;;;;;5003268;28;20205;-50